Aultbea, United Kingdom

2:29 AM BST on October 25, 2014 (GMT +0100)
Strath | Change Station
CLOSE
Current Station
Personal Weather Station
Location: Gairloch, ROSS-SHIRE
Elevation: 32 ft
Nearby Weather Stations

Elev 32 ft 57.73 °N, 5.70 °W | Updated 4 minutes ago

Scattered Clouds
Scattered Clouds
50.5 °F
Feels Like 50.5 °F
N
4.0
Wind Variable Wind from West
Gusts 14.0 mph

Today
High -- | Low -- °F
--% Chance of Precip.
Yesterday
High -- | Low -- °F
Precip. -- in
8:19 AM 5:52 PM
New Moon, 1% visible
Pressure 29.47 in
Visibility 6.2 miles
Clouds Few 1000 ft
Scattered Clouds 2500 ft
Dew Point 46 °F
Humidity 83%
Rainfall 0.00 in
Snow Depth Not available.
UV 0 out of 12
Pollen Not available.
Air Quality Not available.
Flu Activity Not available.
METAR EGPO 250120Z AUTO 22008KT 9999 FEW010/// SCT025/// 08/06 Q0998

More Conditions Fewer Conditions

Pressure 29.47 in
Visibility 6.2 miles
Clouds Few 1000 ft
Scattered Clouds 2500 ft
Dew Point 46 °F
Humidity 83%
Rainfall 0.00 in
Snow Depth Not available.
UV 0 out of 12
Pollen Not available.
Air Quality Not available.
Flu Activity Not available.
METAR EGPO 250120Z AUTO 22008KT 9999 FEW010/// SCT025/// 08/06 Q0998

More Conditions Fewer Conditions

10-Day Weather Forecast

Almanac

Astronomy

Oct. 25, 2014 Rise Set
Actual Time 8:19 AM BST 5:52 PM BST
Civil Twilight 7:38 AM BST 6:33 PM BST
Nautical Twilight 6:53 AM BST 7:18 PM BST
Astronomical Twilight 6:07 AM BST 8:04 PM BST
Moon 9:59 AM BST 6:47 PM BST
Length of Visible Light 10h 54m
Length of Day
9h 32m
Tomorrow will be 4m 47s shorter.
New Moon, 1% of the Moon is Illuminated
Oct 24
New Moon
Oct 30
First Quarter
Nov 6
Full
Nov 14
Last Quarter
Nov 22
New

Yesterday's Extremes

Country Highs Country Lows

Community

WunderPhotos

Upload Photos

1,764,741 photos uploaded!

WunderBlogs® & News

Nearby

Snow Depth

Not available.

Earthquake Activity

City Distance Mag. Time & Date
No recent earthquake activity has been reported nearby.
Minimum magnitude displayed is 2.5.

Coastal Water Temperatures

Place Temperature
No Stations Reporting

Nearby Weather Stations